Terminal Aerodrome Forecast
Issued by NWS

Home | Current Version | Previous Version | Text Only | Print | Product List | Glossary On
Versions: 1 2 3 4 5 6 7 8 9 10 11 12 13 14 15 16
706
FTUS46 KSGX 302336
TAFCRQ
TAF
KCRQ 302336Z 3100/3124 21007KT P6SM SCT015 BKN200
     FM310900 VRB03KT P6SM BKN010
     FM311600 VRB04KT P6SM SCT012 SCT150=

USA.gov is the U.S. government's official web portal to all federal, state and local government web resources and services.